createdAt,value
2023-03-12T00:03:04.354Z,10.97
2023-03-12T00:07:59.828Z,10.83
2023-03-12T00:12:54.853Z,11.10
2023-03-12T00:17:48.278Z,10.37
2023-03-12T00:22:42.073Z,12.90
2023-03-12T00:27:35.389Z,10.77
2023-03-12T00:32:30.184Z,10.93
2023-03-12T00:37:24.113Z,12.07
2023-03-12T00:42:18.108Z,10.60
2023-03-12T00:47:12.072Z,10.13
2023-03-12T00:52:07.314Z,10.70
2023-03-12T00:57:00.645Z,8.83
2023-03-12T01:01:54.026Z,7.67
2023-03-12T01:06:47.354Z,7.53
2023-03-12T01:11:42.211Z,7.37
2023-03-12T01:16:35.988Z,7.53
2023-03-12T01:21:31.124Z,8.00
2023-03-12T01:26:24.755Z,9.53
2023-03-12T01:31:20.747Z,7.07
2023-03-12T01:36:20.207Z,6.90
2023-03-12T01:41:14.152Z,7.93
2023-03-12T01:46:28.375Z,8.40
2023-03-12T01:51:23.251Z,8.10
2023-03-12T01:56:20.004Z,7.27
2023-03-12T02:01:14.213Z,6.73
2023-03-12T02:06:14.709Z,6.33
2023-03-12T02:11:08.512Z,6.20
2023-03-12T02:16:02.220Z,6.90
2023-03-12T02:21:09.114Z,7.60
2023-03-12T02:26:06.624Z,6.70
2023-03-12T02:31:04.963Z,7.00
2023-03-12T02:35:58.299Z,6.97
2023-03-12T02:40:53.589Z,7.50
2023-03-12T02:45:48.828Z,6.10
2023-03-12T02:50:42.743Z,7.43
2023-03-12T02:55:36.103Z,6.10
2023-03-12T03:00:32.225Z,5.80
2023-03-12T03:05:26.989Z,5.37
2023-03-12T03:10:20.508Z,6.73
2023-03-12T03:15:14.743Z,5.50
2023-03-12T03:20:11.924Z,6.67
2023-03-12T03:25:08.695Z,5.17
2023-03-12T03:30:02.337Z,6.37
2023-03-12T03:34:55.651Z,8.87
2023-03-12T03:39:48.995Z,5.60
2023-03-12T03:44:43.880Z,6.93
2023-03-12T03:49:37.218Z,5.97
2023-03-12T03:54:31.243Z,5.80
2023-03-12T03:59:24.692Z,5.17
2023-03-12T04:04:19.441Z,5.43
2023-03-12T04:09:12.765Z,6.30
2023-03-12T04:14:06.126Z,8.17
2023-03-12T04:18:59.565Z,5.23
2023-03-12T04:23:54.339Z,5.17
2023-03-12T04:28:47.632Z,5.23
2023-03-12T04:33:41.992Z,6.27
2023-03-12T04:38:35.744Z,6.07
2023-03-12T04:43:31.081Z,5.60
2023-03-12T04:48:24.600Z,5.57
2023-03-12T04:53:18.070Z,6.63
2023-03-12T04:58:11.468Z,7.47
2023-03-12T05:03:06.200Z,6.47
2023-03-12T05:07:59.496Z,7.80
2023-03-12T05:12:52.888Z,6.27
2023-03-12T05:17:46.393Z,8.20
2023-03-12T05:22:41.779Z,6.20
2023-03-12T05:27:35.141Z,6.70
2023-03-12T05:32:28.580Z,6.03
2023-03-12T05:37:21.948Z,7.77
2023-03-12T05:42:17.346Z,5.70
2023-03-12T05:47:10.883Z,5.93
2023-03-12T05:52:04.254Z,5.00
2023-03-12T05:56:57.786Z,4.40
2023-03-12T06:01:52.589Z,5.10
2023-03-12T06:06:46.023Z,4.87
2023-03-12T06:11:39.353Z,6.20
2023-03-12T06:16:32.943Z,5.07
2023-03-12T06:21:30.432Z,7.97
2023-03-12T06:26:24.764Z,6.33
2023-03-12T06:31:19.311Z,6.47
2023-03-12T06:36:13.821Z,6.13
2023-03-12T06:41:12.093Z,9.23
2023-03-12T06:46:08.093Z,7.80
2023-03-12T06:51:01.835Z,7.80
2023-03-12T06:55:55.268Z,7.30
2023-03-12T07:00:50.271Z,7.00
2023-03-12T07:05:46.452Z,8.77
2023-03-12T07:10:39.820Z,8.73
2023-03-12T07:15:33.825Z,7.93
2023-03-12T07:20:28.595Z,7.90
2023-03-12T07:25:21.896Z,10.47
2023-03-12T07:30:15.678Z,11.43
2023-03-12T07:40:19.400Z,11.37
2023-03-12T07:45:13.052Z,11.03
2023-03-12T07:50:07.364Z,12.30
2023-03-12T07:55:00.897Z,12.67
2023-03-12T07:59:55.862Z,12.27
2023-03-12T08:04:51.304Z,8.90
2023-03-12T08:09:45.653Z,11.10
2023-03-12T08:14:39.170Z,12.10
2023-03-12T08:19:33.921Z,14.23
2023-03-12T08:24:27.302Z,8.53
2023-03-12T08:29:20.680Z,9.00
2023-03-12T08:34:14.040Z,9.70
2023-03-12T08:39:08.803Z,7.43
2023-03-12T08:44:02.277Z,6.73
2023-03-12T08:48:55.571Z,5.27
2023-03-12T08:53:48.940Z,5.47
2023-03-12T08:58:44.903Z,4.47
2023-03-12T09:03:38.371Z,4.53
2023-03-12T09:08:33.970Z,4.10
2023-03-12T09:13:36.645Z,4.40
2023-03-12T09:18:42.036Z,3.70
2023-03-12T09:23:35.421Z,3.20
2023-03-12T09:28:28.776Z,3.37
2023-03-12T09:33:22.074Z,2.97
2023-03-12T09:38:17.014Z,3.20
2023-03-12T09:43:22.181Z,4.00
2023-03-12T09:48:20.322Z,3.17
2023-03-12T09:53:27.301Z,3.77
2023-03-12T09:58:28.455Z,2.93
2023-03-12T10:03:41.237Z,3.00
2023-03-12T10:08:54.705Z,2.67
2023-03-12T10:14:04.792Z,2.80
2023-03-12T10:19:17.312Z,2.50
2023-03-12T10:24:34.751Z,2.90
2023-03-12T10:29:33.093Z,4.03
2023-03-12T10:34:34.385Z,4.33
2023-03-12T10:39:29.253Z,4.50
2023-03-12T10:44:25.848Z,4.17
2023-03-12T10:49:52.656Z,3.20
2023-03-12T10:54:49.882Z,3.30
2023-03-12T10:59:46.501Z,2.83
2023-03-12T11:04:39.909Z,3.03
2023-03-12T11:09:46.163Z,2.70
2023-03-12T11:14:48.078Z,3.23
2023-03-12T11:19:41.521Z,2.90
2023-03-12T11:24:36.709Z,2.93
2023-03-12T11:29:33.350Z,3.20
2023-03-12T11:34:34.022Z,2.30
2023-03-12T11:39:39.237Z,1.93
2023-03-12T11:44:44.039Z,1.90
2023-03-12T11:50:03.243Z,2.03
2023-03-12T11:55:20.609Z,2.00
2023-03-12T12:00:18.470Z,1.50
2023-03-12T12:05:32.411Z,1.60
2023-03-12T12:10:35.778Z,1.40
2023-03-12T12:15:44.492Z,1.87
2023-03-12T12:20:55.222Z,1.30
2023-03-12T12:26:08.112Z,1.17
2023-03-12T12:31:24.173Z,2.23
2023-03-12T12:36:19.934Z,0.97
2023-03-12T12:41:20.735Z,1.37
2023-03-12T12:46:20.091Z,1.70
2023-03-12T12:51:30.084Z,1.40
2023-03-12T12:56:34.042Z,2.83
2023-03-12T13:01:28.737Z,3.17
2023-03-12T13:06:22.172Z,4.53
2023-03-12T13:11:30.963Z,5.73
2023-03-12T13:16:39.178Z,3.70
2023-03-12T13:21:42.294Z,4.13
2023-03-12T13:26:54.900Z,3.10
2023-03-12T13:31:48.623Z,4.30
2023-03-12T13:36:41.935Z,5.97
2023-03-12T13:41:39.236Z,4.90
2023-03-12T13:46:46.994Z,4.67
2023-03-12T13:51:56.643Z,5.43
2023-03-12T13:57:00.446Z,3.73
2023-03-12T14:02:03.125Z,3.53
2023-03-12T14:07:40.887Z,2.97
2023-03-12T14:12:47.280Z,2.17
2023-03-12T14:17:45.139Z,4.23
2023-03-12T14:22:45.855Z,4.27
2023-03-12T14:27:40.275Z,4.07
2023-03-12T14:32:35.958Z,3.67
2023-03-12T14:37:39.424Z,3.50
2023-03-12T14:42:36.657Z,2.37
2023-03-12T14:47:30.390Z,4.57
2023-03-12T14:52:27.834Z,3.57
2023-03-12T14:57:24.665Z,8.03
2023-03-12T15:02:23.980Z,4.03
2023-03-12T15:07:29.020Z,3.90
2023-03-12T15:12:26.667Z,4.90
2023-03-12T15:17:25.431Z,4.10
2023-03-12T15:22:24.705Z,4.53
2023-03-12T15:27:33.093Z,3.07
2023-03-12T15:32:30.638Z,3.57
2023-03-12T15:37:32.537Z,5.93
2023-03-12T15:42:29.367Z,3.57
2023-03-12T15:47:27.575Z,4.97
2023-03-12T15:52:33.893Z,3.40
2023-03-12T15:57:29.354Z,5.13
2023-03-12T16:02:40.559Z,5.43
2023-03-12T16:07:36.193Z,5.43
2023-03-12T16:12:31.264Z,4.40
2023-03-12T16:17:24.957Z,4.40
2023-03-12T16:22:20.282Z,3.77
2023-03-12T16:27:31.643Z,4.27
2023-03-12T16:32:27.583Z,2.50
2023-03-12T16:37:27.584Z,2.07
2023-03-12T16:42:22.411Z,2.40
2023-03-12T16:47:16.144Z,4.20
2023-03-12T16:52:26.600Z,4.53
2023-03-12T16:57:28.156Z,3.50
2023-03-12T17:02:22.263Z,3.20
2023-03-12T17:07:16.217Z,3.20
2023-03-12T17:12:21.407Z,3.27
2023-03-12T17:17:17.559Z,6.03
2023-03-12T17:22:11.261Z,4.77
2023-03-12T17:27:04.839Z,5.77
2023-03-12T17:31:59.582Z,9.27
2023-03-12T17:36:53.054Z,8.40
2023-03-12T17:41:46.456Z,28.47
2023-03-12T17:46:46.923Z,78.53
2023-03-12T17:51:48.902Z,66.10
2023-03-12T17:56:42.278Z,17.53
2023-03-12T18:01:36.680Z,4.63
2023-03-12T18:06:30.042Z,4.27
2023-03-12T18:11:24.773Z,4.80
2023-03-12T18:16:18.458Z,6.00
2023-03-12T18:21:11.928Z,7.87
2023-03-12T18:26:06.172Z,7.23
2023-03-12T18:31:01.063Z,5.63
2023-03-12T18:35:56.425Z,6.27
2023-03-12T18:40:51.394Z,6.90
2023-03-12T18:45:45.874Z,13.20
2023-03-12T18:50:40.580Z,30.50
2023-03-12T18:55:34.043Z,29.07
2023-03-12T19:00:27.802Z,6.67
2023-03-12T19:05:24.254Z,3.93
2023-03-12T19:10:20.296Z,6.30
2023-03-12T19:15:13.743Z,4.73
2023-03-12T19:20:09.677Z,7.63
2023-03-12T19:25:03.248Z,5.90
2023-03-12T19:29:59.951Z,10.60
2023-03-12T19:34:53.359Z,7.53
2023-03-12T19:39:46.791Z,6.30
2023-03-12T19:44:40.482Z,9.90
2023-03-12T19:49:39.616Z,11.93
2023-03-12T19:54:33.458Z,12.40
2023-03-12T19:59:30.094Z,10.57
2023-03-12T20:04:23.463Z,12.07
2023-03-12T20:09:20.938Z,11.40
2023-03-12T20:14:14.353Z,10.20
2023-03-12T20:19:07.724Z,13.87
2023-03-12T20:24:02.285Z,8.63
2023-03-12T20:28:59.892Z,7.90
2023-03-12T20:33:53.290Z,9.87
2023-03-12T20:38:51.630Z,5.70
2023-03-12T20:43:46.208Z,8.53
2023-03-12T20:48:41.010Z,8.13
2023-03-12T20:53:34.446Z,8.53
2023-03-12T20:58:27.864Z,6.97
2023-03-12T21:03:25.097Z,7.53
2023-03-12T21:08:19.880Z,7.93
2023-03-12T21:13:13.445Z,7.27
2023-03-12T21:18:06.940Z,11.07
2023-03-12T21:23:00.933Z,10.63
2023-03-12T21:27:56.627Z,9.63
2023-03-12T21:32:50.115Z,9.87
2023-03-12T21:37:43.503Z,9.60
2023-03-12T21:42:36.873Z,6.37
2023-03-12T21:47:31.851Z,7.03
2023-03-12T21:52:25.403Z,5.57
2023-03-12T21:57:18.746Z,6.83
2023-03-12T22:02:13.384Z,4.80
2023-03-12T22:07:08.885Z,5.53
2023-03-12T22:12:03.388Z,4.47
2023-03-12T22:16:56.726Z,3.63
2023-03-12T22:21:50.036Z,3.33
2023-03-12T22:26:44.740Z,4.30
2023-03-12T22:31:38.226Z,3.17
2023-03-12T22:36:31.657Z,3.40
2023-03-12T22:41:27.932Z,3.57
2023-03-12T22:46:26.038Z,4.07
2023-03-12T22:51:19.620Z,4.63
2023-03-12T22:56:15.294Z,3.47
2023-03-12T23:01:11.719Z,5.63
2023-03-12T23:06:11.699Z,4.33
2023-03-12T23:11:07.063Z,4.90
2023-03-12T23:16:04.069Z,5.37
2023-03-12T23:21:01.784Z,2.70
2023-03-12T23:25:58.675Z,2.93
2023-03-12T23:30:56.965Z,3.87
2023-03-12T23:35:58.745Z,5.10
2023-03-12T23:40:52.970Z,2.33
2023-03-12T23:45:47.717Z,5.43
2023-03-12T23:50:41.297Z,4.00
2023-03-12T23:55:34.579Z,5.17
